You are not logged in, Click here to log in
吉隆坡國際機場KUL / WMKK 馬來西亞
ICAO: WMKK Country: 馬來西亞
Latitude: 2.75452 Longitude: 101.704
Total Arrivals: 31 Total Departures: 34
Latest Arrival: CI721 (RCTP-WMKK)ALAN. LIU Latest Departure: CI722 (WMKK-RCTP)ALAN. LIU
Scenery:
METAR : WMKK 110400Z 15004KT 080V210 9999 FEW017CB SCT018 30/25 Q1009 NOSIG

吉隆坡國際機場KUL

You are accessing this site from IP address 34.229.119.29. Virtual Airline. CMS by phpVMS.Website designed by Zumeweb and edited by Theo Bearman.
There is 1 User(s) Online: | Lun Wang | and 16 Guest(s) Online.
All information on this site is for fight simulation purposes only. This site is for flight logging for pilots of Virtual Airline&模擬飛行論壇 FlySim only.